createdAt,value
2022-10-08T00:01:58.628Z,58.49
2022-10-08T00:04:29.795Z,58.49
2022-10-08T00:07:00.153Z,59.07
2022-10-08T00:09:29.429Z,58.78
2022-10-08T00:11:59.787Z,58.66
2022-10-08T00:14:29.690Z,58.41
2022-10-08T00:16:58.467Z,59.01
2022-10-08T00:19:29.816Z,58.83
2022-10-08T00:21:59.553Z,58.83
2022-10-08T00:24:29.316Z,58.95
2022-10-08T00:26:59.347Z,59.15
2022-10-08T00:29:28.831Z,59.39
2022-10-08T00:31:58.627Z,59.48
2022-10-08T00:34:29.313Z,59.46
2022-10-08T00:36:58.022Z,59.31
2022-10-08T00:39:28.113Z,59.41
2022-10-08T00:41:58.715Z,59.40
2022-10-08T00:44:56.214Z,59.42
2022-10-08T00:47:38.245Z,59.64
2022-10-08T00:50:13.740Z,59.84
2022-10-08T00:52:51.887Z,59.73
2022-10-08T00:55:24.906Z,59.61
2022-10-08T00:57:55.020Z,60.06
2022-10-08T01:00:26.348Z,60.12
2022-10-08T01:02:56.960Z,60.03
2022-10-08T01:05:39.910Z,60.07
2022-10-08T01:08:17.952Z,60.36
2022-10-08T01:10:59.944Z,59.90
2022-10-08T01:13:41.231Z,60.51
2022-10-08T01:16:21.507Z,60.00
2022-10-08T01:18:57.805Z,60.78
2022-10-08T01:21:39.353Z,60.76
2022-10-08T01:24:50.267Z,60.54
2022-10-08T01:27:30.246Z,61.39
2022-10-08T01:30:06.450Z,62.20
2022-10-08T01:32:40.637Z,62.30
2022-10-08T01:35:13.564Z,62.92
2022-10-08T01:37:45.689Z,63.70
2022-10-08T01:40:19.551Z,64.00
2022-10-08T01:42:54.107Z,63.89
2022-10-08T01:45:27.240Z,64.12
2022-10-08T01:47:58.191Z,64.49
2022-10-08T01:50:32.904Z,64.80
2022-10-08T01:53:09.934Z,65.34
2022-10-08T01:55:41.275Z,64.82
2022-10-08T01:58:17.175Z,64.96
2022-10-08T02:00:49.492Z,64.56
2022-10-08T02:03:18.483Z,65.42
2022-10-08T02:05:54.589Z,65.48
2022-10-08T02:08:24.969Z,65.76
2022-10-08T02:10:55.443Z,65.29
2022-10-08T02:13:26.999Z,65.56
2022-10-08T02:16:03.513Z,65.81
2022-10-08T02:18:39.521Z,66.25
2022-10-08T02:21:18.731Z,65.83
2022-10-08T02:23:57.530Z,66.08
2022-10-08T02:26:33.614Z,66.29
2022-10-08T02:29:08.213Z,66.59
2022-10-08T02:31:43.013Z,66.86
2022-10-08T02:34:18.258Z,66.33
2022-10-08T02:36:51.490Z,66.17
2022-10-08T02:39:23.788Z,66.47
2022-10-08T02:41:58.255Z,66.79
2022-10-08T02:44:34.704Z,66.31
2022-10-08T02:47:09.773Z,66.35
2022-10-08T02:49:43.030Z,66.47
2022-10-08T02:52:14.707Z,66.55
2022-10-08T02:54:46.491Z,66.48
2022-10-08T02:57:20.788Z,66.94
2022-10-08T02:59:53.933Z,67.29
2022-10-08T03:02:30.674Z,67.04
2022-10-08T03:05:04.265Z,66.95
2022-10-08T03:07:35.692Z,66.91
2022-10-08T03:10:06.874Z,66.88
2022-10-08T03:12:36.170Z,67.19
2022-10-08T03:15:06.529Z,66.88
2022-10-08T03:17:38.563Z,67.26
2022-10-08T03:20:08.446Z,66.92
2022-10-08T03:22:37.007Z,67.56
2022-10-08T03:25:06.289Z,67.63
2022-10-08T03:27:35.704Z,67.48
2022-10-08T03:30:06.178Z,67.47
2022-10-08T03:32:34.853Z,67.19
2022-10-08T03:35:02.946Z,67.27
2022-10-08T03:37:31.499Z,67.88
2022-10-08T03:39:59.834Z,67.42
2022-10-08T03:42:27.907Z,67.88
2022-10-08T03:44:56.103Z,67.85
2022-10-08T03:47:25.989Z,68.07
2022-10-08T03:49:54.069Z,68.02
2022-10-08T03:52:22.515Z,68.16
2022-10-08T03:54:50.954Z,67.84
2022-10-08T03:57:18.921Z,67.99
2022-10-08T03:59:47.477Z,67.83
2022-10-08T04:02:16.695Z,68.30
2022-10-08T04:04:46.285Z,68.12
2022-10-08T04:07:14.842Z,67.70
2022-10-08T04:09:42.926Z,67.75
2022-10-08T04:12:10.889Z,67.65
2022-10-08T04:14:39.451Z,68.22
2022-10-08T04:17:07.440Z,68.07
2022-10-08T04:19:36.097Z,68.12
2022-10-08T04:22:05.975Z,68.22
2022-10-08T04:24:33.948Z,68.15
2022-10-08T04:27:02.619Z,67.94
2022-10-08T04:29:31.061Z,68.08
2022-10-08T04:31:59.027Z,67.71
2022-10-08T04:34:27.465Z,68.10
2022-10-08T04:36:55.906Z,68.04
2022-10-08T04:39:25.318Z,68.07
2022-10-08T04:41:53.393Z,68.73
2022-10-08T04:44:22.314Z,68.36
2022-10-08T04:46:50.277Z,68.59
2022-10-08T04:49:19.799Z,68.31
2022-10-08T04:51:48.243Z,68.19
2022-10-08T04:54:16.217Z,68.29
2022-10-08T04:56:46.096Z,68.56
2022-10-08T04:59:14.526Z,68.48
2022-10-08T05:01:42.656Z,68.77
2022-10-08T05:04:11.177Z,68.89
2022-10-08T05:06:39.612Z,68.27
2022-10-08T05:09:07.580Z,68.74
2022-10-08T05:11:36.136Z,68.50
2022-10-08T05:14:06.138Z,68.85
2022-10-08T05:16:34.102Z,68.73
2022-10-08T05:19:02.182Z,68.94
2022-10-08T05:21:31.944Z,68.65
2022-10-08T05:24:02.306Z,68.67
2022-10-08T05:26:57.026Z,68.95
2022-10-08T05:29:23.310Z,68.21
2022-10-08T05:31:51.753Z,69.03
2022-10-08T05:34:19.967Z,68.42
2022-10-08T05:36:48.641Z,68.35
2022-10-08T05:39:17.077Z,69.12
2022-10-08T05:41:45.164Z,68.72
2022-10-08T05:44:13.843Z,68.71
2022-10-08T05:46:43.711Z,68.17
2022-10-08T05:49:19.506Z,68.27
2022-10-08T05:51:47.811Z,68.17
2022-10-08T05:54:17.096Z,68.60
2022-10-08T05:56:45.785Z,68.55
2022-10-08T05:59:18.894Z,68.32
2022-10-08T06:01:49.018Z,68.19
2022-10-08T06:04:18.962Z,67.96
2022-10-08T06:06:47.117Z,68.41
2022-10-08T06:09:18.664Z,68.15
2022-10-08T06:11:48.556Z,67.97
2022-10-08T06:14:19.750Z,67.76
2022-10-08T06:16:49.389Z,67.71
2022-10-08T06:19:17.719Z,68.02
2022-10-08T06:21:45.794Z,67.85
2022-10-08T06:24:17.125Z,68.10
2022-10-08T06:26:46.280Z,67.78
2022-10-08T06:29:16.650Z,67.52
2022-10-08T06:31:46.095Z,68.03
2022-10-08T06:34:18.818Z,67.72
2022-10-08T06:36:56.280Z,67.58
2022-10-08T06:39:28.411Z,68.00
2022-10-08T06:41:56.988Z,67.65
2022-10-08T06:44:24.933Z,67.99
2022-10-08T06:46:53.166Z,68.07
2022-10-08T06:49:26.754Z,68.25
2022-10-08T06:51:55.064Z,68.21
2022-10-08T06:54:27.235Z,67.44
2022-10-08T06:56:58.928Z,67.83
2022-10-08T06:59:26.986Z,67.44
2022-10-08T07:01:54.969Z,67.58
2022-10-08T07:04:24.589Z,67.37
2022-10-08T07:06:53.153Z,67.81
2022-10-08T07:09:21.233Z,67.13
2022-10-08T07:11:49.565Z,67.34
2022-10-08T07:14:17.531Z,67.68
2022-10-08T07:16:45.780Z,67.98
2022-10-08T07:19:13.806Z,67.80
2022-10-08T07:21:43.444Z,67.44
2022-10-08T07:24:11.534Z,67.35
2022-10-08T07:26:39.731Z,67.22
2022-10-08T07:29:09.374Z,67.16
2022-10-08T07:31:39.189Z,67.24
2022-10-08T07:34:09.379Z,66.98
2022-10-08T07:36:37.339Z,66.68
2022-10-08T07:39:09.138Z,66.63
2022-10-08T07:41:37.462Z,66.36
2022-10-08T07:44:06.866Z,65.66
2022-10-08T07:46:36.505Z,65.06
2022-10-08T07:49:06.151Z,65.58
2022-10-08T07:51:35.678Z,65.86
2022-10-08T07:54:07.596Z,65.71
2022-10-08T07:56:36.995Z,65.21
2022-10-08T07:59:06.516Z,65.04
2022-10-08T08:01:35.321Z,65.20
2022-10-08T08:04:05.080Z,65.07
2022-10-08T08:06:34.722Z,64.52
2022-10-08T08:09:04.124Z,64.77
2022-10-08T08:11:33.687Z,63.65
2022-10-08T08:14:01.848Z,62.78
2022-10-08T08:16:30.702Z,62.54
2022-10-08T08:19:00.654Z,62.68
2022-10-08T08:21:30.902Z,62.55
2022-10-08T08:24:00.897Z,62.06
2022-10-08T08:26:32.953Z,61.38
2022-10-08T08:29:05.460Z,61.52
2022-10-08T08:31:34.973Z,60.40
2022-10-08T08:34:07.387Z,60.05
2022-10-08T08:36:38.119Z,60.31
2022-10-08T08:39:09.191Z,59.77
2022-10-08T08:41:46.039Z,59.33
2022-10-08T08:44:25.273Z,59.45
2022-10-08T08:46:58.044Z,59.58
2022-10-08T08:49:31.638Z,59.58
2022-10-08T08:52:02.722Z,58.02
2022-10-08T08:54:31.524Z,57.16
2022-10-08T08:57:12.331Z,57.37
2022-10-08T08:59:46.048Z,55.46
2022-10-08T09:02:21.109Z,56.35
2022-10-08T09:04:53.611Z,56.32
2022-10-08T09:07:25.660Z,56.77
2022-10-08T09:09:56.616Z,56.33
2022-10-08T09:12:31.301Z,55.97
2022-10-08T09:15:02.868Z,54.61
2022-10-08T09:17:32.746Z,54.54
2022-10-08T09:20:01.784Z,53.43
2022-10-08T09:22:32.026Z,53.81
2022-10-08T09:25:02.395Z,53.13
2022-10-08T09:27:46.430Z,53.37
2022-10-08T09:30:31.375Z,52.56
2022-10-08T09:33:02.158Z,51.73
2022-10-08T09:35:32.756Z,52.26
2022-10-08T09:38:05.707Z,52.08
2022-10-08T09:40:34.205Z,51.42
2022-10-08T09:43:14.165Z,51.50
2022-10-08T09:45:45.912Z,51.84
2022-10-08T09:48:19.098Z,50.40
2022-10-08T09:50:53.889Z,51.56
2022-10-08T09:53:24.132Z,51.86
2022-10-08T09:55:56.535Z,51.41
2022-10-08T09:58:26.203Z,50.54
2022-10-08T10:01:03.099Z,49.54
2022-10-08T10:03:32.225Z,48.81
2022-10-08T10:06:00.983Z,48.45
2022-10-08T10:08:48.984Z,47.96
2022-10-08T10:11:24.280Z,47.93
2022-10-08T10:13:52.948Z,48.48
2022-10-08T10:16:26.829Z,48.58
2022-10-08T10:18:59.678Z,48.42
2022-10-08T10:21:36.516Z,48.77
2022-10-08T10:24:31.842Z,49.80
2022-10-08T10:27:07.962Z,48.59
2022-10-08T10:29:47.202Z,48.06
2022-10-08T10:32:22.212Z,48.52
2022-10-08T10:35:02.931Z,47.98
2022-10-08T10:37:38.329Z,47.85
2022-10-08T10:40:28.252Z,47.46
2022-10-08T10:43:07.266Z,46.80
2022-10-08T10:45:40.992Z,47.33
2022-10-08T10:48:14.822Z,47.08
2022-10-08T10:50:57.060Z,47.60
2022-10-08T10:53:38.583Z,47.82
2022-10-08T10:56:14.946Z,48.30
2022-10-08T10:59:07.147Z,48.08
2022-10-08T11:01:46.931Z,47.10
2022-10-08T11:04:26.230Z,45.46
2022-10-08T11:07:02.960Z,46.24
2022-10-08T11:09:42.556Z,45.02
2022-10-08T11:12:32.239Z,45.12
2022-10-08T11:15:09.921Z,44.83
2022-10-08T11:17:53.852Z,45.31
2022-10-08T11:20:43.418Z,46.44
2022-10-08T11:23:22.289Z,47.25
2022-10-08T11:26:20.444Z,46.55
2022-10-08T11:28:53.259Z,46.02
2022-10-08T11:31:34.774Z,45.44
2022-10-08T11:34:05.623Z,44.74
2022-10-08T11:36:42.340Z,45.75
2022-10-08T11:39:18.221Z,44.93
2022-10-08T11:41:53.999Z,45.42
2022-10-08T11:44:22.315Z,44.71
2022-10-08T11:46:50.272Z,45.16
2022-10-08T11:49:51.507Z,45.06
2022-10-08T11:52:21.113Z,44.80
2022-10-08T11:54:55.598Z,45.45
2022-10-08T11:57:49.219Z,45.40
2022-10-08T12:00:33.120Z,45.32
2022-10-08T12:03:08.739Z,44.96
2022-10-08T12:05:50.442Z,45.62
2022-10-08T12:08:58.104Z,44.43
2022-10-08T12:11:49.218Z,43.63
2022-10-08T12:14:34.572Z,42.92
2022-10-08T12:17:14.657Z,43.57
2022-10-08T12:20:21.982Z,42.11
2022-10-08T12:23:06.740Z,43.16
2022-10-08T12:25:44.782Z,43.15
2022-10-08T12:28:55.381Z,43.06
2022-10-08T12:31:36.951Z,42.86
2022-10-08T12:34:16.589Z,42.11
2022-10-08T12:37:04.239Z,43.18
2022-10-08T12:39:38.312Z,43.10
2022-10-08T12:42:19.369Z,43.37
2022-10-08T12:45:07.769Z,43.02
2022-10-08T16:12:24.523Z,43.42
2022-10-08T16:14:52.670Z,43.84
2022-10-08T16:17:21.078Z,43.43
2022-10-08T16:19:50.138Z,43.44
2022-10-08T16:22:24.244Z,43.96
2022-10-08T16:24:58.935Z,43.73
2022-10-08T16:27:29.970Z,43.81
2022-10-08T16:29:57.677Z,43.96
2022-10-08T16:32:27.214Z,44.19
2022-10-08T16:34:54.886Z,44.13
2022-10-08T16:37:25.061Z,44.01
2022-10-08T16:39:55.106Z,44.12
2022-10-08T16:42:25.619Z,44.08
2022-10-08T16:44:54.731Z,44.06
2022-10-08T16:47:23.370Z,44.30
2022-10-08T16:49:51.679Z,43.63
2022-10-08T16:52:23.978Z,43.93
2022-10-08T16:54:56.041Z,43.92
2022-10-08T16:57:26.648Z,43.92
2022-10-08T16:59:57.488Z,44.35
2022-10-08T17:02:26.305Z,44.24
2022-10-08T17:04:54.853Z,44.23
2022-10-08T17:07:23.042Z,44.48
2022-10-08T17:09:50.752Z,44.51
2022-10-08T17:12:21.790Z,44.55
2022-10-08T17:14:49.670Z,44.77
2022-10-08T17:17:19.253Z,45.00
2022-10-08T17:19:46.917Z,44.50
2022-10-08T17:22:16.324Z,44.43
2022-10-08T17:24:44.507Z,44.86
2022-10-08T17:27:13.428Z,45.41
2022-10-08T17:29:41.675Z,46.44
2022-10-08T17:32:11.426Z,47.59
2022-10-08T17:34:40.947Z,48.85
2022-10-08T17:37:08.632Z,49.24
2022-10-08T17:39:36.744Z,49.43
2022-10-08T17:42:07.156Z,49.53
2022-10-08T17:44:35.622Z,49.56
2022-10-08T17:47:03.322Z,49.68
2022-10-08T17:49:32.783Z,49.94
2022-10-08T17:52:01.807Z,49.83
2022-10-08T17:54:29.866Z,50.12
2022-10-08T17:56:58.628Z,50.05
2022-10-08T17:59:26.898Z,50.20
2022-10-08T18:01:55.030Z,50.13
2022-10-08T18:04:23.089Z,50.44
2022-10-08T18:06:50.765Z,50.44
2022-10-08T18:09:22.325Z,50.47
2022-10-08T18:11:52.104Z,50.88
2022-10-08T18:14:20.751Z,50.72
2022-10-08T18:16:48.967Z,51.04
2022-10-08T18:19:17.782Z,50.83
2022-10-08T18:21:45.668Z,51.44
2022-10-08T18:24:13.733Z,51.43
2022-10-08T18:26:43.272Z,51.67
2022-10-08T18:29:13.425Z,51.81
2022-10-08T18:31:43.561Z,51.51
2022-10-08T18:34:14.326Z,51.54
2022-10-08T18:36:42.542Z,51.44
2022-10-08T18:39:13.367Z,51.96
2022-10-08T18:41:44.337Z,51.72
2022-10-08T18:44:14.995Z,51.83
2022-10-08T18:46:44.933Z,51.87
2022-10-08T18:49:14.474Z,51.92
2022-10-08T18:51:42.696Z,51.94
2022-10-08T18:54:11.589Z,52.26
2022-10-08T18:56:41.722Z,52.58
2022-10-08T18:59:14.641Z,52.33
2022-10-08T19:01:44.985Z,52.62
2022-10-08T19:04:15.464Z,52.77
2022-10-08T19:06:44.871Z,52.61
2022-10-08T19:09:12.536Z,52.32
2022-10-08T19:11:44.925Z,52.67
2022-10-08T19:14:16.197Z,52.94
2022-10-08T19:16:44.756Z,52.93
2022-10-08T19:19:15.575Z,52.79
2022-10-08T19:21:44.342Z,52.71
2022-10-08T19:24:14.517Z,53.31
2022-10-08T19:26:43.154Z,53.30
2022-10-08T19:29:19.381Z,53.15
2022-10-08T19:31:51.939Z,53.32
2022-10-08T19:34:25.436Z,53.24
2022-10-08T19:36:54.846Z,53.21
2022-10-08T19:39:26.928Z,53.17
2022-10-08T19:41:55.561Z,52.98
2022-10-08T19:44:26.326Z,53.49
2022-10-08T19:46:56.074Z,52.89
2022-10-08T19:49:26.431Z,52.98
2022-10-08T19:51:55.708Z,52.79
2022-10-08T19:54:23.994Z,53.43
2022-10-08T19:56:57.757Z,53.61
2022-10-08T19:59:26.843Z,53.65
2022-10-08T20:01:56.331Z,53.54
2022-10-08T20:04:24.417Z,53.78
2022-10-08T20:06:53.284Z,53.41
2022-10-08T20:09:21.250Z,53.69
2022-10-08T20:11:49.627Z,53.76
2022-10-08T20:14:17.370Z,53.05
2022-10-08T20:16:46.471Z,53.25
2022-10-08T20:19:16.761Z,53.75
2022-10-08T20:21:45.230Z,53.88
2022-10-08T20:24:13.303Z,53.62
2022-10-08T20:26:42.459Z,53.81
2022-10-08T20:29:13.445Z,53.85
2022-10-08T20:31:43.687Z,53.97
2022-10-08T20:34:14.480Z,53.37
2022-10-08T20:36:42.509Z,53.79
2022-10-08T20:39:12.551Z,54.10
2022-10-08T20:41:40.241Z,53.25
2022-10-08T20:44:09.240Z,53.26
2022-10-08T20:46:37.581Z,53.63
2022-10-08T20:49:06.478Z,53.63
2022-10-08T20:51:36.012Z,53.90
2022-10-08T20:54:06.900Z,53.93
2022-10-08T20:56:39.529Z,53.95
2022-10-08T20:59:09.094Z,54.02
2022-10-08T21:01:38.761Z,53.42
2022-10-08T21:04:08.256Z,53.57
2022-10-08T21:06:39.637Z,53.60
2022-10-08T21:09:08.725Z,53.47
2022-10-08T21:11:36.918Z,53.57
2022-10-08T21:14:05.809Z,53.81
2022-10-08T21:16:37.127Z,54.01
2022-10-08T21:19:06.956Z,53.60
2022-10-08T21:21:36.258Z,53.89
2022-10-08T21:24:06.146Z,53.69
2022-10-08T21:26:35.347Z,54.39
2022-10-08T21:29:05.622Z,54.25
2022-10-08T21:31:35.098Z,54.02
2022-10-08T21:34:03.312Z,54.02
2022-10-08T21:36:33.098Z,53.91
2022-10-08T21:39:02.475Z,53.99
2022-10-08T21:41:33.418Z,53.83
2022-10-08T21:44:03.191Z,54.19
2022-10-08T21:46:32.811Z,54.48
2022-10-08T21:49:02.943Z,54.62
2022-10-08T21:51:32.001Z,54.20
2022-10-08T21:54:02.811Z,55.05
2022-10-08T21:56:33.253Z,55.42
2022-10-08T21:59:02.554Z,54.85
2022-10-08T22:01:32.610Z,54.76
2022-10-08T22:04:02.973Z,54.34
2022-10-08T22:06:33.240Z,54.58
2022-10-08T22:09:01.486Z,55.03
2022-10-08T22:11:29.303Z,55.25
2022-10-08T22:13:58.327Z,54.74
2022-10-08T22:16:26.848Z,54.67
2022-10-08T22:18:54.533Z,54.94
2022-10-08T22:21:24.072Z,55.32
2022-10-08T22:23:52.873Z,54.95
2022-10-08T22:26:22.774Z,55.01
2022-10-08T22:28:51.489Z,54.82
2022-10-08T22:31:22.273Z,54.84
2022-10-08T22:33:50.577Z,54.63
2022-10-08T22:36:20.553Z,54.95
2022-10-08T22:38:48.833Z,55.13
2022-10-08T22:41:18.438Z,54.86
2022-10-08T22:43:46.507Z,55.14
2022-10-08T22:46:16.197Z,55.02
2022-10-08T22:48:46.034Z,54.60
2022-10-08T22:51:16.108Z,54.77
2022-10-08T22:53:44.124Z,54.90
2022-10-08T22:56:14.867Z,54.97
2022-10-08T22:58:43.163Z,54.96
2022-10-08T23:01:13.033Z,54.64
2022-10-08T23:03:41.402Z,55.29
2022-10-08T23:06:16.224Z,55.46
2022-10-08T23:08:45.853Z,55.45
2022-10-08T23:11:14.852Z,55.07
2022-10-08T23:13:45.529Z,54.88
2022-10-08T23:16:15.490Z,54.68
2022-10-08T23:18:45.300Z,55.01
2022-10-08T23:21:17.057Z,54.76
2022-10-08T23:23:46.129Z,55.17
2022-10-08T23:26:15.095Z,55.07
2022-10-08T23:28:43.904Z,55.28
2022-10-08T23:31:13.873Z,55.57
2022-10-08T23:33:44.718Z,55.38
2022-10-08T23:36:16.646Z,55.24
2022-10-08T23:38:45.031Z,55.60
2022-10-08T23:41:13.896Z,55.19
2022-10-08T23:43:43.542Z,55.33
2022-10-08T23:46:13.112Z,55.38
2022-10-08T23:48:41.827Z,55.28
2022-10-08T23:51:10.878Z,55.40
2022-10-08T23:53:40.766Z,55.53
2022-10-08T23:56:09.082Z,55.72
2022-10-08T23:58:37.862Z,55.52
